Time;durP1;ratioP1;P1;durP2;ratioP2;P2;SDS_P1;SDS_P2;PMS_P1;PMS_P2;Temp;Humidity;BMP_temperature;BMP_pressure;BME280_temperature;BME280_humidity;BME280_pressure;Samples;Min_cycle;Max_cycle;Signal;HPM_P1;HPM_P2
2023/10/06 00:00:18;;;;;;;4.85;2.45;;;11.20;99.90;;;;;;5016794;28;20049;-68
2023/10/06 00:02:44;;;;;;;4.88;2.35;;;11.00;99.90;;;;;;5017705;28;20071;-68
2023/10/06 00:05:12;;;;;;;4.93;2.05;;;10.90;99.90;;;;;;5017376;28;20022;-68
2023/10/06 00:07:40;;;;;;;4.55;2.25;;;10.90;99.90;;;;;;5017233;28;20025;-67
2023/10/06 00:10:13;;;;;;;4.55;1.92;;;10.90;99.90;;;;;;5017558;28;20029;-67
2023/10/06 00:12:39;;;;;;;8.27;2.65;;;10.80;99.90;;;;;;5016769;28;20097;-67
2023/10/06 00:15:08;;;;;;;5.65;1.77;;;10.80;99.90;;;;;;5016298;28;20089;-67
2023/10/06 00:17:35;;;;;;;4.03;1.50;;;10.70;99.90;;;;;;5016844;28;20037;-68
2023/10/06 00:20:00;;;;;;;5.07;2.20;;;10.70;99.90;;;;;;5017149;28;20018;-68
2023/10/06 00:22:26;;;;;;;5.15;1.80;;;10.70;99.90;;;;;;5017404;28;20045;-68
2023/10/06 00:24:58;;;;;;;10.05;2.83;;;10.60;99.90;;;;;;5017362;28;20092;-68
2023/10/06 00:27:29;;;;;;;4.53;1.40;;;10.60;99.90;;;;;;5017148;28;20025;-68
2023/10/06 00:29:55;;;;;;;4.32;1.98;;;10.60;99.90;;;;;;5016908;28;20026;-68
2023/10/06 00:32:27;;;;;;;5.22;1.80;;;10.60;99.90;;;;;;5017080;28;20086;-68
2023/10/06 00:35:11;;;;;;;3.63;1.52;;;10.70;99.90;;;;;;5017074;28;20052;-67
2023/10/06 00:37:38;;;;;;;2.75;1.90;;;10.60;99.90;;;;;;5016977;28;20026;-68
2023/10/06 00:40:11;;;;;;;2.67;1.50;;;10.50;99.90;;;;;;5016935;28;20109;-68
2023/10/06 00:42:37;;;;;;;11.55;2.05;;;10.50;99.90;;;;;;5016880;28;20018;-68
2023/10/06 00:45:07;;;;;;;3.58;1.83;;;10.50;99.90;;;;;;5016041;28;20033;-68
2023/10/06 00:47:38;;;;;;;5.38;2.03;;;10.40;99.90;;;;;;5016828;28;20057;-67
2023/10/06 00:50:07;;;;;;;6.32;1.85;;;10.40;99.90;;;;;;5017252;28;20109;-68
2023/10/06 00:52:33;;;;;;;8.18;2.05;;;10.40;99.90;;;;;;5016772;28;20037;-68
2023/10/06 00:55:02;;;;;;;5.32;1.63;;;10.40;99.90;;;;;;5017150;28;20049;-67
2023/10/06 00:57:28;;;;;;;8.65;1.95;;;10.40;99.90;;;;;;5016891;28;20022;-68
2023/10/06 00:59:55;;;;;;;6.15;2.35;;;10.40;99.90;;;;;;5016016;28;20018;-68
2023/10/06 01:02:21;;;;;;;7.07;2.47;;;10.40;99.90;;;;;;5016683;28;20028;-67
2023/10/06 01:04:52;;;;;;;5.90;2.22;;;10.40;99.90;;;;;;5017176;28;20029;-68
2023/10/06 01:07:18;;;;;;;5.97;2.53;;;10.50;99.90;;;;;;5020887;28;20022;-68
2023/10/06 01:09:57;;;;;;;7.18;2.67;;;10.50;99.90;;;;;;5019536;28;20033;-68
2023/10/06 01:12:26;;;;;;;9.00;2.08;;;10.50;99.90;;;;;;5020573;28;20049;-68
2023/10/06 01:15:05;;;;;;;4.50;2.05;;;10.50;99.90;;;;;;5020677;28;20041;-67
2023/10/06 01:17:31;;;;;;;3.28;2.05;;;10.40;99.90;;;;;;5020453;28;20025;-68
2023/10/06 01:19:59;;;;;;;4.40;1.85;;;10.40;99.90;;;;;;5020480;28;20025;-68
2023/10/06 01:22:27;;;;;;;3.30;1.80;;;10.40;99.90;;;;;;5020158;28;20050;-68
2023/10/06 01:24:54;;;;;;;5.93;2.13;;;10.30;99.90;;;;;;5020315;28;20022;-68
2023/10/06 01:27:21;;;;;;;3.90;1.65;;;10.30;99.90;;;;;;5020363;28;20097;-67
2023/10/06 01:29:51;;;;;;;7.57;1.90;;;10.20;99.90;;;;;;5020115;28;20029;-68
2023/10/06 01:32:17;;;;;;;4.10;2.40;;;10.20;99.90;;;;;;5020263;28;20022;-68
2023/10/06 01:34:44;;;;;;;3.92;2.10;;;10.20;99.90;;;;;;5019825;28;20117;-67
2023/10/06 01:37:10;;;;;;;4.53;2.10;;;10.20;99.90;;;;;;5020083;28;20018;-68
2023/10/06 01:39:36;;;;;;;6.70;2.05;;;10.20;99.90;;;;;;5019374;28;20034;-67
2023/10/06 01:42:16;;;;;;;6.13;2.45;;;10.20;99.90;;;;;;5018872;28;20049;-68
2023/10/06 01:44:42;;;;;;;7.82;2.13;;;10.10;99.90;;;;;;5020280;28;20022;-67
2023/10/06 01:47:07;;;;;;;3.63;2.10;;;10.10;99.90;;;;;;5020274;28;20029;-67
2023/10/06 01:49:36;;;;;;;6.70;2.13;;;10.10;99.90;;;;;;5019947;28;20038;-68
2023/10/06 01:52:05;;;;;;;5.47;2.88;;;10.10;99.90;;;;;;5018635;28;20044;-67
2023/10/06 01:54:34;;;;;;;5.07;2.15;;;10.20;99.90;;;;;;5019668;28;20132;-68
2023/10/06 01:57:10;;;;;;;3.95;2.42;;;10.20;99.90;;;;;;5019826;28;20018;-68
2023/10/06 01:59:35;;;;;;;4.38;2.50;;;10.20;99.90;;;;;;5019527;28;20022;-67
2023/10/06 02:02:01;;;;;;;5.82;2.60;;;10.10;99.90;;;;;;5019786;28;20050;-68
2023/10/06 02:04:38;;;;;;;6.38;3.50;;;10.10;99.90;;;;;;5019760;28;20022;-67
2023/10/06 02:07:05;;;;;;;5.63;2.95;;;10.10;99.90;;;;;;5019460;28;20030;-67
2023/10/06 02:09:32;;;;;;;17.17;3.83;;;10.00;99.90;;;;;;5019414;28;20050;-68
2023/10/06 02:11:57;;;;;;;10.98;3.53;;;10.00;99.90;;;;;;5019408;28;20029;-67
2023/10/06 02:14:23;;;;;;;11.90;3.70;;;9.90;99.90;;;;;;5018905;28;20021;-68
2023/10/06 02:16:49;;;;;;;9.35;4.18;;;9.80;99.90;;;;;;5018161;28;20026;-68
2023/10/06 02:19:18;;;;;;;10.63;4.13;;;9.80;99.90;;;;;;5019199;28;20030;-69
2023/10/06 02:21:46;;;;;;;7.07;3.40;;;9.90;99.90;;;;;;5018697;28;20018;-69
2023/10/06 02:24:12;;;;;;;15.48;3.90;;;9.90;99.90;;;;;;5018472;28;20026;-68
2023/10/06 02:26:38;;;;;;;10.43;4.07;;;9.90;99.90;;;;;;5018252;28;20026;-68
2023/10/06 02:29:19;;;;;;;8.15;3.75;;;9.90;99.90;;;;;;5019140;28;20033;-68
2023/10/06 02:31:45;;;;;;;13.15;3.60;;;9.80;99.90;;;;;;5018115;28;20036;-68
2023/10/06 02:34:18;;;;;;;5.47;3.28;;;9.80;99.90;;;;;;5018120;28;20037;-68
2023/10/06 02:36:44;;;;;;;5.43;2.80;;;9.80;99.90;;;;;;5019185;28;20053;-68
2023/10/06 02:39:15;;;;;;;4.75;2.47;;;9.90;99.90;;;;;;5017855;28;20065;-68
2023/10/06 02:41:41;;;;;;;5.22;3.17;;;9.90;99.90;;;;;;5018814;28;20018;-68
2023/10/06 02:44:22;;;;;;;11.73;3.88;;;10.00;99.90;;;;;;5017798;28;20092;-69
2023/10/06 02:46:50;;;;;;;6.97;3.40;;;10.10;99.90;;;;;;5018855;28;20084;-69
2023/10/06 02:49:24;;;;;;;5.43;2.53;;;10.20;99.90;;;;;;5017654;28;20045;-69
2023/10/06 02:51:50;;;;;;;7.38;3.03;;;10.20;99.90;;;;;;5018578;28;20025;-68
2023/10/06 02:56:43;;;;;;;9.57;3.70;;;10.30;99.90;;;;;;5019023;28;20037;-69
2023/10/06 02:59:34;;;;;;;11.75;4.20;;;10.40;99.90;;;;;;5017465;28;20033;-69
2023/10/06 03:02:00;;;;;;;17.63;6.32;;;10.40;99.90;;;;;;5018600;28;20084;-69
2023/10/06 03:04:27;;;;;;;27.00;7.20;;;10.40;99.90;;;;;;5018690;28;20159;-69
2023/10/06 03:06:58;;;;;;;24.60;7.03;;;10.40;99.90;;;;;;5018349;28;20018;-69
2023/10/06 03:09:38;;;;;;;28.15;6.35;;;10.30;99.90;;;;;;5018473;28;20179;-69
2023/10/06 03:12:12;;;;;;;18.67;5.10;;;10.10;99.90;;;;;;5018267;28;20022;-68
2023/10/06 03:14:38;;;;;;;21.70;6.72;;;10.00;99.90;;;;;;5018537;28;20057;-69
2023/10/06 03:17:06;;;;;;;21.60;4.47;;;10.00;99.90;;;;;;5017995;28;20033;-69
2023/10/06 03:19:33;;;;;;;30.10;5.63;;;10.10;99.90;;;;;;5018129;28;20029;-68
2023/10/06 03:22:02;;;;;;;26.13;6.28;;;10.10;99.90;;;;;;5018011;28;20025;-68
2023/10/06 03:24:34;;;;;;;26.42;5.53;;;10.10;99.90;;;;;;5018047;28;20018;-68
2023/10/06 03:27:08;;;;;;;25.25;5.80;;;10.00;99.90;;;;;;5018009;28;20049;-68
2023/10/06 03:29:43;;;;;;;22.60;5.32;;;10.00;99.90;;;;;;5017938;28;20021;-68
2023/10/06 03:32:20;;;;;;;13.20;5.20;;;10.20;99.90;;;;;;5017318;28;20025;-68
2023/10/06 03:34:47;;;;;;;22.45;6.57;;;10.30;99.90;;;;;;5017736;28;20036;-68
2023/10/06 03:37:16;;;;;;;18.00;6.15;;;10.30;99.90;;;;;;5016886;28;20018;-69
2023/10/06 03:39:50;;;;;;;15.98;6.18;;;10.40;99.90;;;;;;5017900;28;20022;-69
2023/10/06 03:42:18;;;;;;;12.13;4.75;;;10.50;99.90;;;;;;5018260;28;20030;-69
2023/10/06 03:44:52;;;;;;;13.45;4.93;;;10.70;99.90;;;;;;5017902;28;20045;-69
2023/10/06 03:47:18;;;;;;;15.65;6.10;;;10.90;99.90;;;;;;5017659;28;20026;-69
2023/10/06 03:49:44;;;;;;;16.10;6.50;;;11.00;99.90;;;;;;5016751;28;20018;-69
2023/10/06 03:52:09;;;;;;;22.80;7.28;;;11.00;99.90;;;;;;5017774;28;20026;-69
2023/10/06 03:54:36;;;;;;;19.45;6.88;;;11.00;99.90;;;;;;5017525;28;20033;-69
2023/10/06 03:57:01;;;;;;;15.32;6.30;;;10.90;99.90;;;;;;5016632;28;20025;-69
2023/10/06 03:59:27;;;;;;;10.85;5.97;;;10.90;99.90;;;;;;5016613;28;20025;-69
2023/10/06 04:01:53;;;;;;;10.85;5.35;;;10.80;99.90;;;;;;5017406;28;20026;-69
2023/10/06 04:04:22;;;;;;;20.17;5.97;;;10.70;99.90;;;;;;5017608;28;20032;-69
2023/10/06 04:06:48;;;;;;;14.13;5.93;;;10.60;99.90;;;;;;5017295;28;20037;-68
2023/10/06 04:09:27;;;;;;;16.10;5.90;;;10.50;99.90;;;;;;5016393;28;20030;-68
2023/10/06 04:11:53;;;;;;;12.05;6.45;;;10.50;99.90;;;;;;5017225;28;20026;-68
2023/10/06 04:14:20;;;;;;;21.63;6.38;;;10.60;99.90;;;;;;5017354;28;20041;-69
2023/10/06 04:16:46;;;;;;;11.60;6.15;;;10.50;99.90;;;;;;5016650;28;20282;-69
2023/10/06 04:19:15;;;;;;;11.27;5.82;;;10.50;99.90;;;;;;5016246;28;20069;-68
2023/10/06 04:21:42;;;;;;;12.88;5.35;;;10.60;99.90;;;;;;5017462;28;20021;-69
2023/10/06 04:24:08;;;;;;;24.00;6.90;;;10.80;99.90;;;;;;5016226;28;20022;-69
2023/10/06 04:26:33;;;;;;;15.80;5.53;;;10.80;99.90;;;;;;5017467;28;20097;-69
2023/10/06 04:28:59;;;;;;;23.70;6.18;;;10.70;99.90;;;;;;5017175;28;20116;-69
2023/10/06 04:31:24;;;;;;;26.10;5.50;;;10.60;99.90;;;;;;5017014;28;20093;-69
2023/10/06 04:33:50;;;;;;;21.02;6.15;;;10.50;99.90;;;;;;5017279;28;20037;-69
2023/10/06 04:36:20;;;;;;;11.73;5.78;;;10.40;99.90;;;;;;5017051;28;20041;-69
2023/10/06 04:38:46;;;;;;;23.33;7.13;;;10.50;99.90;;;;;;5016064;28;20092;-69
2023/10/06 04:41:11;;;;;;;13.50;5.82;;;10.40;99.90;;;;;;5020093;28;20030;-69
2023/10/06 04:43:45;;;;;;;11.10;5.13;;;10.40;99.90;;;;;;5020080;28;20104;-69
2023/10/06 04:46:12;;;;;;;14.93;4.80;;;10.60;99.90;;;;;;5021520;28;20020;-69
2023/10/06 04:48:38;;;;;;;8.13;5.13;;;10.70;99.90;;;;;;5020333;28;20026;-69
2023/10/06 04:51:09;;;;;;;10.52;5.10;;;10.90;99.90;;;;;;5020915;28;20026;-71
2023/10/06 04:53:37;;;;;;;9.80;4.93;;;11.00;99.90;;;;;;5019921;28;20032;-71
2023/10/06 04:56:05;;;;;;;7.13;4.47;;;10.90;99.90;;;;;;5020739;28;20034;-72
2023/10/06 04:58:32;;;;;;;13.73;4.93;;;10.90;99.90;;;;;;5020605;28;20022;-72
2023/10/06 05:01:00;;;;;;;8.65;3.97;;;11.00;99.90;;;;;;5020742;28;20018;-68
2023/10/06 05:03:26;;;;;;;10.30;4.90;;;11.00;99.90;;;;;;5020655;28;20026;-66
2023/10/06 05:05:55;;;;;;;11.65;5.65;;;11.00;99.90;;;;;;5020627;28;20168;-66
2023/10/06 05:08:21;;;;;;;26.48;5.45;;;10.90;99.90;;;;;;5019844;28;20026;-65
2023/10/06 05:10:47;;;;;;;9.85;5.28;;;10.80;99.90;;;;;;5020491;28;20026;-72
2023/10/06 05:13:14;;;;;;;12.02;4.97;;;10.80;99.90;;;;;;5020555;28;20031;-71
2023/10/06 05:15:41;;;;;;;15.38;6.20;;;10.70;99.90;;;;;;5019629;28;20076;-72
2023/10/06 05:18:07;;;;;;;14.50;5.63;;;10.70;99.90;;;;;;5020549;28;20093;-72
2023/10/06 05:20:35;;;;;;;9.75;4.72;;;10.60;99.90;;;;;;5020538;28;20054;-66
2023/10/06 05:23:07;;;;;;;10.15;4.53;;;10.70;99.90;;;;;;5019450;28;20032;-66
2023/10/06 05:25:36;;;;;;;56.08;6.28;;;10.60;99.90;;;;;;5020403;28;20030;-66
2023/10/06 05:28:03;;;;;;;14.35;5.40;;;10.60;99.90;;;;;;5019444;28;20030;-66
2023/10/06 05:30:29;;;;;;;11.68;5.10;;;10.50;99.90;;;;;;5019218;28;20053;-71
2023/10/06 05:32:59;;;;;;;8.80;5.10;;;10.50;99.90;;;;;;5020026;28;20033;-72
2023/10/06 05:35:35;;;;;;;19.33;6.10;;;10.40;99.90;;;;;;5020209;28;20026;-72
2023/10/06 05:38:08;;;;;;;22.38;6.97;;;10.40;99.90;;;;;;5019898;28;20022;-66
2023/10/06 05:40:37;;;;;;;15.10;6.45;;;10.40;99.90;;;;;;5020115;28;20022;-66
2023/10/06 05:43:04;;;;;;;15.05;5.97;;;10.30;99.90;;;;;;5020299;28;20101;-67
2023/10/06 05:45:30;;;;;;;10.93;5.47;;;10.30;99.90;;;;;;5020089;28;20018;-69
2023/10/06 05:47:58;;;;;;;23.92;6.47;;;10.30;99.90;;;;;;5018958;28;20032;-69
2023/10/06 05:50:28;;;;;;;12.27;6.25;;;10.20;99.90;;;;;;5019788;28;20022;-69
2023/10/06 05:52:57;;;;;;;10.20;5.80;;;10.20;99.90;;;;;;5018897;28;20030;-68
2023/10/06 05:55:29;;;;;;;15.38;6.00;;;10.30;99.90;;;;;;5019766;28;20053;-68
2023/10/06 05:57:55;;;;;;;10.77;5.85;;;10.30;99.90;;;;;;5019567;28;20053;-68
2023/10/06 06:00:26;;;;;;;8.40;4.65;;;10.30;99.90;;;;;;5019727;28;20050;-68
2023/10/06 06:02:53;;;;;;;8.13;5.32;;;10.30;99.90;;;;;;5019733;28;20018;-68
2023/10/06 06:05:19;;;;;;;13.70;4.97;;;10.30;99.90;;;;;;5018618;28;20025;-68
2023/10/06 06:07:44;;;;;;;8.40;4.90;;;10.40;99.90;;;;;;5018776;28;20030;-68
2023/10/06 06:10:13;;;;;;;14.38;5.65;;;10.40;99.90;;;;;;5019682;28;20087;-68
2023/10/06 06:12:42;;;;;;;11.05;5.03;;;10.30;99.90;;;;;;5018821;28;20026;-68
2023/10/06 06:15:08;;;;;;;13.32;5.97;;;10.40;99.90;;;;;;5018461;28;20022;-68
2023/10/06 06:17:34;;;;;;;10.88;5.50;;;10.40;99.90;;;;;;5018222;28;20030;-68
2023/10/06 06:20:01;;;;;;;15.27;6.15;;;10.30;99.90;;;;;;5019310;28;20109;-68
2023/10/06 06:22:29;;;;;;;10.25;5.53;;;10.30;99.90;;;;;;5018332;28;20026;-68
2023/10/06 06:24:55;;;;;;;22.98;7.13;;;10.30;99.90;;;;;;5019212;28;20075;-68
2023/10/06 06:27:22;;;;;;;16.75;7.13;;;10.20;99.90;;;;;;5019436;28;20113;-68
2023/10/06 06:29:49;;;;;;;11.27;5.78;;;10.30;99.90;;;;;;5019521;28;20018;-68
2023/10/06 06:32:18;;;;;;;18.25;6.03;;;10.50;99.90;;;;;;5018115;28;20021;-68
2023/10/06 06:34:43;;;;;;;10.02;5.53;;;10.60;99.90;;;;;;5018041;28;20023;-68
2023/10/06 06:37:09;;;;;;;19.20;6.00;;;10.70;99.90;;;;;;5019109;28;20073;-68
2023/10/06 06:39:37;;;;;;;9.13;5.05;;;10.70;99.90;;;;;;5017844;28;20022;-68
2023/10/06 06:42:05;;;;;;;13.43;5.07;;;10.90;99.90;;;;;;5018915;28;20026;-68
2023/10/06 06:44:31;;;;;;;7.63;4.60;;;11.00;99.90;;;;;;5018882;28;20095;-68
2023/10/06 06:46:56;;;;;;;10.23;5.30;;;11.10;99.90;;;;;;5019055;28;20025;-68
2023/10/06 06:49:23;;;;;;;10.25;5.95;;;10.80;99.90;;;;;;5018725;28;20029;-68
2023/10/06 06:51:49;;;;;;;7.78;5.25;;;10.70;99.90;;;;;;5018656;28;20029;-68
2023/10/06 06:54:14;;;;;;;8.93;4.78;;;10.80;99.90;;;;;;5017684;28;20026;-68
2023/10/06 06:56:40;;;;;;;14.20;5.07;;;10.80;99.90;;;;;;5018824;28;20022;-68
2023/10/06 06:59:07;;;;;;;9.57;4.47;;;11.00;99.90;;;;;;5017484;28;20108;-68
2023/10/06 07:01:33;;;;;;;20.08;4.68;;;10.80;99.90;;;;;;5018398;28;20022;-68
2023/10/06 07:04:00;;;;;;;6.80;4.72;;;10.50;99.90;;;;;;5016973;28;20025;-68
2023/10/06 07:06:26;;;;;;;9.00;4.28;;;10.50;99.90;;;;;;5018595;28;20014;-68
2023/10/06 07:08:51;;;;;;;6.30;4.05;;;10.70;99.90;;;;;;5018377;28;20100;-68
2023/10/06 07:11:17;;;;;;;6.47;4.20;;;10.90;99.90;;;;;;5018517;28;20029;-68
2023/10/06 07:13:42;;;;;;;8.38;4.47;;;11.00;99.90;;;;;;5017836;28;20026;-68
2023/10/06 07:16:09;;;;;;;7.97;4.20;;;11.10;99.90;;;;;;5018240;28;20037;-68
2023/10/06 07:18:36;;;;;;;7.53;4.22;;;11.20;99.90;;;;;;5017960;28;20077;-68
2023/10/06 07:21:08;;;;;;;8.55;4.72;;;11.10;99.90;;;;;;5017186;28;20028;-68
2023/10/06 07:23:34;;;;;;;12.23;5.65;;;10.90;99.90;;;;;;5018269;28;20018;-68
2023/10/06 07:26:00;;;;;;;10.60;4.68;;;10.50;99.90;;;;;;5018164;28;20022;-68
2023/10/06 07:28:27;;;;;;;9.13;4.70;;;10.40;99.90;;;;;;5018030;28;20053;-68
2023/10/06 07:30:52;;;;;;;22.70;5.95;;;10.40;99.90;;;;;;5017785;28;20034;-68
2023/10/06 07:33:18;;;;;;;8.95;4.50;;;10.40;99.90;;;;;;5018236;28;20026;-68
2023/10/06 07:35:47;;;;;;;10.07;4.80;;;10.50;99.90;;;;;;5017848;28;20030;-68
2023/10/06 07:38:13;;;;;;;8.20;5.05;;;10.70;99.90;;;;;;5017672;28;20029;-68
2023/10/06 07:40:40;;;;;;;7.45;5.18;;;10.50;99.90;;;;;;5017786;28;20045;-68
2023/10/06 07:43:07;;;;;;;8.85;4.90;;;10.60;99.90;;;;;;5017731;28;20029;-68
2023/10/06 07:45:33;;;;;;;6.60;4.25;;;10.70;99.90;;;;;;5016823;28;20076;-68
2023/10/06 07:47:59;;;;;;;16.75;4.90;;;10.70;99.90;;;;;;5016959;28;20053;-68
2023/10/06 07:50:33;;;;;;;10.60;5.60;;;10.80;99.90;;;;;;5017006;28;20022;-68
2023/10/06 07:53:00;;;;;;;11.15;5.45;;;10.80;99.90;;;;;;5017406;28;20077;-68
2023/10/06 07:55:26;;;;;;;10.93;6.20;;;10.90;99.90;;;;;;5016603;28;20076;-68
2023/10/06 07:57:51;;;;;;;10.60;4.57;;;11.10;99.90;;;;;;5016461;28;20022;-68
2023/10/06 08:00:27;;;;;;;11.05;5.35;;;11.20;99.90;;;;;;5017698;28;20025;-68
2023/10/06 08:02:53;;;;;;;9.52;5.13;;;11.30;99.90;;;;;;5017537;28;20025;-68
2023/10/06 08:05:19;;;;;;;8.80;5.25;;;11.40;99.90;;;;;;5017469;28;20014;-68
2023/10/06 08:07:45;;;;;;;8.07;4.40;;;11.50;99.90;;;;;;5017271;28;20029;-68
2023/10/06 08:10:16;;;;;;;6.55;4.45;;;11.70;99.90;;;;;;5017392;28;20052;-68
2023/10/06 08:12:47;;;;;;;7.13;4.82;;;11.80;99.90;;;;;;5016748;28;20033;-68
2023/10/06 08:15:17;;;;;;;7.82;5.20;;;11.80;99.90;;;;;;5016014;28;20030;-68
2023/10/06 08:17:46;;;;;;;10.48;4.95;;;11.40;99.90;;;;;;5017474;28;20033;-68
2023/10/06 08:20:13;;;;;;;7.85;4.82;;;11.40;99.90;;;;;;5017296;28;20024;-69
2023/10/06 08:22:39;;;;;;;6.53;4.25;;;11.40;99.90;;;;;;5017166;28;20034;-69
2023/10/06 08:25:05;;;;;;;7.05;4.20;;;11.60;99.90;;;;;;5017422;28;20053;-69
2023/10/06 08:27:39;;;;;;;7.32;4.13;;;11.80;99.90;;;;;;5017499;28;20018;-69
2023/10/06 08:30:18;;;;;;;8.38;4.13;;;12.00;99.90;;;;;;5016916;28;20101;-69
2023/10/06 08:32:45;;;;;;;5.40;4.03;;;12.10;99.90;;;;;;5017324;28;20022;-69
2023/10/06 08:35:13;;;;;;;7.75;4.20;;;12.20;99.90;;;;;;5016164;28;20098;-69
2023/10/06 08:37:42;;;;;;;6.63;4.38;;;12.20;99.90;;;;;;5017099;28;20126;-69
2023/10/06 08:40:16;;;;;;;7.10;4.65;;;12.00;99.90;;;;;;5016996;28;20018;-69
2023/10/06 08:42:49;;;;;;;7.15;4.80;;;11.80;99.90;;;;;;5017018;28;20022;-69
2023/10/06 08:45:19;;;;;;;6.30;4.68;;;11.70;99.90;;;;;;5016911;28;20055;-69
2023/10/06 08:48:09;;;;;;;8.15;3.97;;;11.60;99.90;;;;;;5016981;28;20033;-69
2023/10/06 08:50:35;;;;;;;5.80;4.25;;;11.50;99.90;;;;;;5016887;28;20017;-69
2023/10/06 08:53:05;;;;;;;9.48;4.30;;;11.50;99.90;;;;;;5017329;28;20029;-68
2023/10/06 08:55:30;;;;;;;8.38;4.95;;;11.60;99.90;;;;;;5015968;28;20042;-69
2023/10/06 08:58:00;;;;;;;6.72;4.57;;;11.50;99.90;;;;;;5015815;28;20061;-69
2023/10/06 09:00:26;;;;;;;9.52;4.82;;;11.60;99.90;;;;;;5017165;28;20046;-69
2023/10/06 09:02:54;;;;;;;10.55;5.70;;;11.40;99.90;;;;;;5017130;28;20022;-69
2023/10/06 09:05:20;;;;;;;8.93;4.97;;;11.30;99.90;;;;;;5016124;28;20026;-68
2023/10/06 09:08:09;;;;;;;9.27;4.97;;;11.40;99.90;;;;;;5016226;28;20026;-69
2023/10/06 09:10:37;;;;;;;12.20;5.72;;;11.40;99.90;;;;;;5016729;28;20060;-69
2023/10/06 09:13:05;;;;;;;9.40;5.88;;;11.30;99.90;;;;;;5016549;28;20030;-69
2023/10/06 09:15:33;;;;;;;10.20;5.45;;;11.40;99.90;;;;;;5016609;28;20029;-69
2023/10/06 09:17:59;;;;;;;13.05;6.25;;;11.50;99.90;;;;;;5016019;28;20037;-69
2023/10/06 09:20:37;;;;;;;12.02;6.40;;;11.60;99.90;;;;;;5016650;28;20025;-69
2023/10/06 09:23:03;;;;;;;12.27;5.57;;;11.70;99.90;;;;;;5016672;28;20018;-69
2023/10/06 09:25:42;;;;;;;14.70;6.35;;;12.00;99.90;;;;;;5016610;28;20018;-69
2023/10/06 09:28:13;;;;;;;13.23;5.18;;;12.30;99.90;;;;;;5020259;28;20018;-69
2023/10/06 09:31:05;;;;;;;14.90;6.90;;;12.30;99.90;;;;;;5020630;28;20032;-69
2023/10/06 09:33:37;;;;;;;14.15;6.00;;;12.50;99.90;;;;;;5020025;28;20030;-69
2023/10/06 09:36:07;;;;;;;10.00;5.97;;;12.60;99.90;;;;;;5020464;28;20168;-69
2023/10/06 09:38:33;;;;;;;10.10;6.18;;;12.60;99.90;;;;;;5020075;28;20033;-69
2023/10/06 09:40:59;;;;;;;10.93;6.57;;;12.70;99.90;;;;;;5019137;28;20111;-69
2023/10/06 09:43:25;;;;;;;13.57;6.70;;;12.80;99.90;;;;;;5019567;28;20018;-69
2023/10/06 09:45:51;;;;;;;9.13;5.70;;;13.10;99.90;;;;;;5019094;28;20022;-69
2023/10/06 09:48:22;;;;;;;12.50;6.97;;;13.20;99.90;;;;;;5019969;28;20036;-69
2023/10/06 09:50:50;;;;;;;9.23;5.68;;;13.40;99.90;;;;;;5019924;28;20026;-69
2023/10/06 09:53:19;;;;;;;10.90;6.50;;;13.50;99.90;;;;;;5020124;28;20113;-69
2023/10/06 09:55:52;;;;;;;11.45;6.00;;;13.40;99.90;;;;;;5019919;28;20018;-69
2023/10/06 09:58:17;;;;;;;12.50;6.05;;;13.20;99.90;;;;;;5019544;28;20026;-69
2023/10/06 10:00:44;;;;;;;9.50;5.75;;;13.20;99.90;;;;;;5019889;28;20022;-69
2023/10/06 10:03:13;;;;;;;14.32;5.57;;;13.30;99.90;;;;;;5019623;28;20026;-69
2023/10/06 10:05:41;;;;;;;19.48;6.40;;;13.50;99.90;;;;;;5018691;28;20018;-69
2023/10/06 10:08:07;;;;;;;9.95;5.63;;;13.40;99.90;;;;;;5019735;28;20025;-69
2023/10/06 10:10:36;;;;;;;9.15;6.22;;;13.50;99.90;;;;;;5019719;28;20026;-69
2023/10/06 10:13:20;;;;;;;17.00;6.05;;;13.70;99.90;;;;;;5019585;28;20026;-69
2023/10/06 10:15:52;;;;;;;8.98;5.75;;;13.80;99.90;;;;;;5019501;28;20061;-69
2023/10/06 10:18:24;;;;;;;12.88;6.25;;;13.90;99.90;;;;;;5019528;28;20036;-69
2023/10/06 10:20:51;;;;;;;11.27;6.38;;;13.80;99.90;;;;;;5019566;28;20093;-69
2023/10/06 10:23:17;;;;;;;11.77;5.68;;;13.80;99.90;;;;;;5019546;28;20018;-69
2023/10/06 10:25:44;;;;;;;10.70;6.53;;;13.80;99.90;;;;;;5018390;28;20033;-70
2023/10/06 10:28:19;;;;;;;13.15;6.30;;;14.00;99.90;;;;;;5018992;28;20029;-69
2023/10/06 10:30:53;;;;;;;12.30;6.40;;;14.10;99.90;;;;;;5019382;28;20033;-69
2023/10/06 10:33:33;;;;;;;14.05;6.82;;;14.10;99.90;;;;;;5019092;28;20029;-69
2023/10/06 10:36:17;;;;;;;13.70;6.57;;;14.30;99.90;;;;;;5019216;28;20065;-69
2023/10/06 10:38:56;;;;;;;12.00;6.30;;;14.40;99.90;;;;;;5018213;28;20033;-69
2023/10/06 10:41:26;;;;;;;10.27;5.45;;;14.70;99.90;;;;;;5019051;28;20014;-69
2023/10/06 10:43:53;;;;;;;12.55;6.20;;;15.00;99.90;;;;;;5019240;28;20029;-69
2023/10/06 10:46:31;;;;;;;15.02;6.25;;;15.60;99.90;;;;;;5019058;28;20021;-69
2023/10/06 10:48:59;;;;;;;11.38;6.35;;;15.90;99.90;;;;;;5017928;28;20025;-69
2023/10/06 10:51:25;;;;;;;9.82;5.00;;;16.40;99.90;;;;;;5018854;28;20025;-69
2023/10/06 10:53:52;;;;;;;15.05;6.03;;;16.40;99.90;;;;;;5017977;28;20034;-69
2023/10/06 10:56:36;;;;;;;17.10;6.07;;;16.50;99.90;;;;;;5018698;28;20038;-69
2023/10/06 10:59:03;;;;;;;11.88;5.75;;;17.10;99.90;;;;;;5018598;28;20022;-69
2023/10/06 11:01:38;;;;;;;9.63;5.45;;;17.20;99.90;;;;;;5018779;28;20021;-66
2023/10/06 11:04:12;;;;;;;11.40;6.38;;;17.10;99.90;;;;;;5017686;28;20033;-66
2023/10/06 11:06:44;;;;;;;9.90;5.05;;;16.90;99.90;;;;;;5018776;28;20021;-66
2023/10/06 11:09:30;;;;;;;14.57;5.30;;;16.70;99.90;;;;;;5017400;28;20091;-66
2023/10/06 11:12:00;;;;;;;9.65;5.60;;;16.80;99.90;;;;;;5018040;28;20026;-65
2023/10/06 11:14:28;;;;;;;10.53;5.20;;;16.70;99.90;;;;;;5017922;28;20026;-66
2023/10/06 11:17:02;;;;;;;15.82;5.72;;;16.80;99.90;;;;;;5018844;28;20026;-66
2023/10/06 11:19:28;;;;;;;7.85;5.00;;;17.00;99.90;;;;;;5019008;28;20041;-66
2023/10/06 11:21:55;;;;;;;8.38;5.07;;;17.20;99.90;;;;;;5018421;28;20046;-66
2023/10/06 11:24:28;;;;;;;13.88;4.53;;;17.20;99.90;;;;;;5018311;28;20101;-66
2023/10/06 11:26:54;;;;;;;10.25;4.85;;;17.50;99.90;;;;;;5017265;28;20116;-66
2023/10/06 11:29:32;;;;;;;9.00;5.13;;;18.10;99.90;;;;;;5017352;28;20117;-66
2023/10/06 11:32:01;;;;;;;7.05;4.38;;;18.70;99.90;;;;;;5017118;28;20053;-66
2023/10/06 11:34:27;;;;;;;9.55;4.75;;;18.60;99.90;;;;;;5017869;28;20083;-66
2023/10/06 11:36:59;;;;;;;11.98;4.78;;;18.80;99.90;;;;;;5017792;28;20030;-66
2023/10/06 11:39:29;;;;;;;8.38;4.68;;;18.70;99.90;;;;;;5017111;28;20022;-66
2023/10/06 11:42:26;;;;;;;8.07;3.95;;;18.70;99.90;;;;;;5018018;28;20068;-66
2023/10/06 11:44:56;;;;;;;8.60;4.45;;;18.60;99.90;;;;;;5016887;28;20030;-66
2023/10/06 11:47:28;;;;;;;9.60;4.20;;;19.40;99.90;;;;;;5017560;28;20026;-66
2023/10/06 11:49:57;;;;;;;7.95;4.45;;;19.50;99.90;;;;;;5016870;28;20026;-66
2023/10/06 11:52:24;;;;;;;8.27;5.00;;;19.90;99.90;;;;;;5017896;28;20026;-66
2023/10/06 11:54:51;;;;;;;7.13;3.72;;;20.40;99.90;;;;;;5016744;28;20025;-66
2023/10/06 11:57:17;;;;;;;10.00;4.95;;;20.30;99.90;;;;;;5017490;28;20026;-66
2023/10/06 11:59:53;;;;;;;8.55;4.80;;;20.80;99.90;;;;;;5016961;28;20026;-66
2023/10/06 12:02:21;;;;;;;7.97;4.72;;;20.80;99.90;;;;;;5017745;28;20018;-66
2023/10/06 12:04:47;;;;;;;8.50;4.80;;;20.40;99.90;;;;;;5017386;28;20046;-66
2023/10/06 12:07:25;;;;;;;9.73;5.55;;;19.70;99.90;;;;;;5017383;28;20022;-66
2023/10/06 12:10:00;;;;;;;11.73;5.28;;;20.10;99.90;;;;;;5016763;28;20022;-66
2023/10/06 12:12:26;;;;;;;10.48;4.90;;;19.50;99.90;;;;;;5017204;28;20029;-66
2023/10/06 12:14:53;;;;;;;11.23;5.55;;;19.50;99.90;;;;;;5016396;28;20089;-66
2023/10/06 12:17:19;;;;;;;15.70;6.00;;;19.70;99.90;;;;;;5017350;28;20026;-66
2023/10/06 12:19:44;;;;;;;9.57;5.68;;;20.10;99.90;;;;;;5016282;28;20034;-66
2023/10/06 12:22:10;;;;;;;12.02;5.55;;;20.00;99.90;;;;;;5016400;28;20121;-66
2023/10/06 12:24:35;;;;;;;15.75;5.88;;;20.60;99.90;;;;;;5017055;28;20018;-66
2023/10/06 12:27:01;;;;;;;11.27;5.88;;;20.50;99.90;;;;;;5016565;28;20029;-66
2023/10/06 12:29:29;;;;;;;9.32;5.00;;;20.20;99.90;;;;;;5016541;28;20025;-66
2023/10/06 12:31:56;;;;;;;13.90;6.22;;;21.10;99.90;;;;;;5017139;28;20044;-66
2023/10/06 12:34:22;;;;;;;10.68;5.53;;;21.20;99.90;;;;;;5016347;28;20204;-66
2023/10/06 12:36:48;;;;;;;11.02;5.55;;;21.00;99.90;;;;;;5017329;28;20056;-66
2023/10/06 12:39:30;;;;;;;15.90;5.95;;;20.80;99.90;;;;;;5017079;28;20022;-66
2023/10/06 12:41:57;;;;;;;16.05;5.53;;;21.00;99.90;;;;;;5016213;28;20072;-66
2023/10/06 12:44:27;;;;;;;10.18;5.80;;;22.20;99.90;;;;;;5016046;28;20029;-67
2023/10/06 12:46:55;;;;;;;10.57;5.30;;;22.70;99.90;;;;;;5017067;28;20030;-66
2023/10/06 12:49:23;;;;;;;10.50;4.60;;;22.60;99.90;;;;;;5016948;28;20022;-66
2023/10/06 12:51:50;;;;;;;9.45;4.10;;;21.90;99.90;;;;;;5016789;28;20022;-67
2023/10/06 12:54:15;;;;;;;8.63;3.45;;;22.10;99.90;;;;;;5016294;28;20036;-66